Time;durP1;ratioP1;P1;durP2;ratioP2;P2;SDS_P1;SDS_P2;PMS_P1;PMS_P2;Temp;Humidity;BMP_temperature;BMP_pressure;BME280_temperature;BME280_humidity;BME280_pressure;Samples;Min_cycle;Max_cycle;Signal;HPM_P1;HPM_P2
2022/06/02 00:02:22;;;;;;;10.32;7.60;;;;;;;;;;5028146;28;20060;-72
2022/06/02 00:04:56;;;;;;;12.18;8.20;;;;;;;;;;5032542;28;20026;-73
2022/06/02 00:07:32;;;;;;;15.05;7.70;;;;;;;;;;5035342;28;20070;-72
2022/06/02 00:10:13;;;;;;;10.75;8.35;;;;;;;;;;5008406;28;20037;-75
2022/06/02 00:13:08;;;;;;;11.88;7.97;;;;;;;;;;5012729;28;20087;-74
2022/06/02 00:15:37;;;;;;;13.00;8.80;;;;;;;;;;4995864;28;20034;-74
2022/06/02 00:18:19;;;;;;;11.40;7.97;;;;;;;;;;5012727;28;20026;-74
2022/06/02 00:21:04;;;;;;;12.65;7.85;;;;;;;;;;5012369;28;20168;-75
2022/06/02 00:23:35;;;;;;;14.48;8.57;;;;;;;;;;4998902;28;20026;-74
2022/06/02 00:26:21;;;;;;;11.68;8.15;;;;;;;;;;5019370;28;20072;-74
2022/06/02 00:28:52;;;;;;;14.38;8.25;;;;;;;;;;5003121;28;20026;-75
2022/06/02 00:31:30;;;;;;;12.70;8.68;;;;;;;;;;5019540;28;20391;-75
2022/06/02 00:33:58;;;;;;;12.32;8.05;;;;;;;;;;5020798;28;20033;-75
2022/06/02 00:36:44;;;;;;;17.60;8.32;;;;;;;;;;5019315;28;20386;-74
2022/06/02 00:39:10;;;;;;;13.35;8.30;;;;;;;;;;5013236;28;20088;-74
2022/06/02 00:41:42;;;;;;;10.65;7.60;;;;;;;;;;4995591;28;20452;-74
2022/06/02 00:44:11;;;;;;;10.73;8.00;;;;;;;;;;5012481;28;20022;-74
2022/06/02 00:46:37;;;;;;;14.18;8.68;;;;;;;;;;5012308;28;20026;-74
2022/06/02 00:49:42;;;;;;;13.18;8.13;;;;;;;;;;5012335;28;20037;-74
2022/06/02 00:52:15;;;;;;;14.20;9.48;;;;;;;;;;4932420;29;20075;-74
2022/06/02 00:58:06;;;;;;;12.85;9.05;;;;;;;;;;4985312;28;20065;-74
2022/06/02 01:00:45;;;;;;;14.30;8.93;;;;;;;;;;4935844;29;20087;-74
2022/06/02 01:03:19;;;;;;;14.38;9.52;;;;;;;;;;4936070;29;20397;-74
2022/06/02 01:05:45;;;;;;;11.38;8.32;;;;;;;;;;4985518;28;20034;-75
2022/06/02 01:08:20;;;;;;;16.40;9.68;;;;;;;;;;5017760;28;20105;-74
2022/06/02 01:11:05;;;;;;;14.65;9.85;;;;;;;;;;5017117;28;20040;-75
2022/06/02 01:13:41;;;;;;;12.95;10.05;;;;;;;;;;5017026;28;20025;-74
2022/06/02 01:16:12;;;;;;;14.50;9.52;;;;;;;;;;5015868;28;20022;-74
2022/06/02 01:18:38;;;;;;;16.00;10.10;;;;;;;;;;5016115;28;20068;-74
2022/06/02 01:21:10;;;;;;;13.10;10.32;;;;;;;;;;5015408;28;20026;-75
2022/06/02 01:23:57;;;;;;;12.73;9.73;;;;;;;;;;5015338;28;20087;-73
2022/06/02 01:26:37;;;;;;;15.75;9.10;;;;;;;;;;5015207;28;20018;-73
2022/06/02 01:29:15;;;;;;;13.95;10.07;;;;;;;;;;4997716;28;20026;-73
2022/06/02 01:31:44;;;;;;;15.27;10.75;;;;;;;;;;5015020;28;20026;-72
2022/06/02 01:34:19;;;;;;;13.98;10.43;;;;;;;;;;4997585;28;20032;-73
2022/06/02 01:36:50;;;;;;;14.15;10.75;;;;;;;;;;5014877;28;20340;-73
2022/06/02 01:39:35;;;;;;;19.13;11.32;;;;;;;;;;5014929;28;20505;-74
2022/06/02 01:42:17;;;;;;;14.40;10.85;;;;;;;;;;5014997;28;20037;-73
2022/06/02 01:44:43;;;;;;;22.08;10.57;;;;;;;;;;5015103;28;20026;-75
2022/06/02 01:47:18;;;;;;;15.20;10.40;;;;;;;;;;5020366;28;20037;-79
2022/06/02 01:49:44;;;;;;;;;;;;;;;;;;5003052;28;20023;-81
2022/06/02 01:52:13;;;;;;;18.15;10.38;;;;;;;;;;4985387;28;19906;-80
2022/06/02 01:54:55;;;;;;;16.10;10.63;;;;;;;;;;5002840;28;20022;-77
2022/06/02 01:57:37;;;;;;;15.88;10.68;;;;;;;;;;5002491;28;20041;-79
2022/06/02 02:00:11;;;;;;;14.45;10.43;;;;;;;;;;4984702;28;20033;-78
2022/06/02 02:02:53;;;;;;;15.80;10.95;;;;;;;;;;5000058;28;20534;-78
2022/06/02 02:05:19;;;;;;;16.50;10.95;;;;;;;;;;5000714;28;20033;-77
2022/06/02 02:07:54;;;;;;;16.20;11.13;;;;;;;;;;5002119;28;20027;-79
2022/06/02 02:10:27;;;;;;;16.90;11.60;;;;;;;;;;5000030;28;20526;-79
2022/06/02 02:13:09;;;;;;;13.85;11.05;;;;;;;;;;4983193;28;20053;-79
2022/06/02 02:15:38;;;;;;;22.88;12.20;;;;;;;;;;4981940;28;20106;-78
2022/06/02 02:18:13;;;;;;;16.98;11.55;;;;;;;;;;5001456;28;20030;-80
2022/06/02 02:20:51;;;;;;;16.35;11.73;;;;;;;;;;5000565;28;20407;-78
2022/06/02 02:23:32;;;;;;;14.77;11.43;;;;;;;;;;5004677;28;20095;-78
2022/06/02 02:26:05;;;;;;;14.65;11.85;;;;;;;;;;4985478;28;20026;-80
2022/06/02 02:28:43;;;;;;;16.35;10.98;;;;;;;;;;5002709;28;20034;-79
2022/06/02 02:31:21;;;;;;;15.52;11.73;;;;;;;;;;5002463;28;20023;-79
2022/06/02 02:33:59;;;;;;;25.65;12.50;;;;;;;;;;4985171;28;20026;-79
2022/06/02 02:36:33;;;;;;;18.27;12.18;;;;;;;;;;5001186;28;20022;-79
2022/06/02 02:39:09;;;;;;;15.70;11.48;;;;;;;;;;4996507;28;20061;-75
2022/06/02 02:41:51;;;;;;;18.50;10.80;;;;;;;;;;5009778;23;20502;-72
2022/06/02 02:44:28;;;;;;;19.55;12.50;;;;;;;;;;4995008;28;20037;-72
2022/06/02 02:47:16;;;;;;;16.95;12.15;;;;;;;;;;4994800;28;20033;-74
2022/06/02 02:49:52;;;;;;;17.25;12.50;;;;;;;;;;4994985;28;20046;-71
2022/06/02 02:52:24;;;;;;;15.95;12.32;;;;;;;;;;4976889;28;20066;-72
2022/06/02 02:55:06;;;;;;;18.67;12.25;;;;;;;;;;4986287;28;20043;-73
2022/06/02 02:57:43;;;;;;;18.25;12.45;;;;;;;;;;4974774;28;20023;-73
2022/06/02 03:00:19;;;;;;;19.58;11.90;;;;;;;;;;4975218;28;20030;-73
2022/06/02 03:02:52;;;;;;;19.77;11.95;;;;;;;;;;4975337;28;20089;-72
2022/06/02 03:05:28;;;;;;;19.48;12.88;;;;;;;;;;4975482;28;20476;-73
2022/06/02 03:08:00;;;;;;;18.30;12.18;;;;;;;;;;4974823;28;20035;-72
2022/06/02 03:10:31;;;;;;;23.15;12.82;;;;;;;;;;4957465;28;20019;-71
2022/06/02 03:13:03;;;;;;;21.27;13.63;;;;;;;;;;4957508;28;20035;-72
2022/06/02 03:15:36;;;;;;;21.88;13.25;;;;;;;;;;4974540;28;20154;-74
2022/06/02 03:18:07;;;;;;;19.00;13.48;;;;;;;;;;4974848;28;20480;-71
2022/06/02 03:20:45;;;;;;;24.27;13.95;;;;;;;;;;4957190;28;20027;-74
2022/06/02 03:23:14;;;;;;;20.00;13.70;;;;;;;;;;4973886;28;20026;-72
2022/06/02 03:25:46;;;;;;;19.63;13.88;;;;;;;;;;4974794;28;20029;-72
2022/06/02 03:28:28;;;;;;;22.17;13.32;;;;;;;;;;4977222;28;20102;-73
2022/06/02 03:31:08;;;;;;;18.67;14.57;;;;;;;;;;4959876;28;20033;-71
2022/06/02 03:33:44;;;;;;;20.85;14.60;;;;;;;;;;4974849;28;20531;-71
2022/06/02 03:36:17;;;;;;;21.83;14.88;;;;;;;;;;4974238;28;20126;-72
2022/06/02 03:38:55;;;;;;;20.00;14.43;;;;;;;;;;4973925;28;20125;-72
2022/06/02 03:41:30;;;;;;;26.50;14.95;;;;;;;;;;4974183;28;20086;-72
2022/06/02 03:44:15;;;;;;;26.40;15.15;;;;;;;;;;4974964;28;20027;-73
2022/06/02 03:46:41;;;;;;;25.73;15.10;;;;;;;;;;4974292;28;20054;-74
2022/06/02 03:49:10;;;;;;;23.30;15.90;;;;;;;;;;4974492;28;20113;-73
2022/06/02 03:51:43;;;;;;;27.05;15.38;;;;;;;;;;4956751;28;20122;-73
2022/06/02 03:54:18;;;;;;;27.35;15.38;;;;;;;;;;4974125;28;20026;-72
2022/06/02 03:56:50;;;;;;;22.35;15.52;;;;;;;;;;4974318;28;20530;-73
2022/06/02 03:59:16;;;;;;;25.67;16.13;;;;;;;;;;4974218;28;20027;-74
2022/06/02 04:01:47;;;;;;;28.23;15.93;;;;;;;;;;4973751;28;20026;-73
2022/06/02 04:04:32;;;;;;;21.80;15.13;;;;;;;;;;4974297;28;20019;-72
2022/06/02 04:07:11;;;;;;;28.00;16.70;;;;;;;;;;4973609;28;20034;-73
2022/06/02 04:09:43;;;;;;;24.13;16.45;;;;;;;;;;4974458;28;20057;-73
2022/06/02 04:15:00;;;;;;;29.15;17.92;;;;;;;;;;4974612;28;20057;-73
2022/06/02 04:17:46;;;;;;;28.85;17.90;;;;;;;;;;4975042;28;20035;-73
2022/06/02 04:20:35;;;;;;;25.23;16.23;;;;;;;;;;4934764;28;20073;-72
2022/06/02 04:23:20;;;;;;;26.90;18.40;;;;;;;;;;4974141;28;20393;-71
2022/06/02 04:25:55;;;;;;;29.10;18.48;;;;;;;;;;4957639;28;20023;-74
2022/06/02 04:28:34;;;;;;;29.48;18.45;;;;;;;;;;4974692;28;20027;-72
2022/06/02 04:31:03;;;;;;;30.48;17.58;;;;;;;;;;4974500;28;20044;-73
2022/06/02 04:33:37;;;;;;;24.35;17.65;;;;;;;;;;4976378;28;20029;-72
2022/06/02 04:36:22;;;;;;;26.10;18.20;;;;;;;;;;4978146;28;20022;-73
2022/06/02 04:38:52;;;;;;;27.90;18.52;;;;;;;;;;4961052;28;20042;-72
2022/06/02 04:41:24;;;;;;;28.45;17.88;;;;;;;;;;4978444;28;20026;-73
2022/06/02 04:43:58;;;;;;;29.58;18.65;;;;;;;;;;4977913;28;20107;-73
2022/06/02 04:46:23;;;;;;;26.03;16.97;;;;;;;;;;4977856;28;20139;-75
2022/06/02 04:48:53;;;;;;;34.22;20.00;;;;;;;;;;4977853;28;20030;-73
2022/06/02 04:51:18;;;;;;;26.20;17.60;;;;;;;;;;4978083;28;20035;-72
2022/06/02 04:53:47;;;;;;;28.67;18.00;;;;;;;;;;4960563;28;20170;-72
2022/06/02 04:56:19;;;;;;;27.35;17.70;;;;;;;;;;4978327;28;20074;-73
2022/06/02 04:59:00;;;;;;;30.30;18.40;;;;;;;;;;4978639;28;20030;-72
2022/06/02 05:01:44;;;;;;;27.83;17.50;;;;;;;;;;4979197;28;20482;-73
2022/06/02 05:04:23;;;;;;;29.92;17.20;;;;;;;;;;4978019;28;20109;-73
2022/06/02 05:07:07;;;;;;;29.13;16.90;;;;;;;;;;4977368;28;20468;-73
2022/06/02 05:09:56;;;;;;;25.25;17.15;;;;;;;;;;4977660;28;20027;-73
2022/06/02 05:12:28;;;;;;;26.85;16.13;;;;;;;;;;4969276;28;20117;-72
2022/06/02 05:15:02;;;;;;;25.67;15.75;;;;;;;;;;4988193;28;20030;-73
2022/06/02 05:17:37;;;;;;;20.92;14.45;;;;;;;;;;4989171;28;20122;-74
2022/06/02 05:20:03;;;;;;;23.63;14.25;;;;;;;;;;4978469;28;20082;-73
2022/06/02 05:22:41;;;;;;;26.38;14.73;;;;;;;;;;4979422;28;20492;-73
2022/06/02 05:25:19;;;;;;;30.92;14.93;;;;;;;;;;4977028;28;20062;-73
2022/06/02 05:27:57;;;;;;;25.40;14.38;;;;;;;;;;4959718;28;20078;-73
2022/06/02 05:30:37;;;;;;;26.13;13.68;;;;;;;;;;4976996;28;20031;-73
2022/06/02 05:33:21;;;;;;;20.05;13.02;;;;;;;;;;4977021;28;20053;-73
2022/06/02 05:35:59;;;;;;;24.67;14.05;;;;;;;;;;4983004;28;20035;-72
2022/06/02 05:38:25;;;;;;;22.95;13.10;;;;;;;;;;4993340;28;20049;-74
2022/06/02 05:40:59;;;;;;;20.52;12.85;;;;;;;;;;4991532;28;20034;-74
2022/06/02 05:43:29;;;;;;;26.33;12.50;;;;;;;;;;4993770;28;20158;-73
2022/06/02 05:45:55;;;;;;;19.05;11.48;;;;;;;;;;4980293;28;20035;-73
2022/06/02 05:48:29;;;;;;;20.20;11.75;;;;;;;;;;4977583;28;20077;-72
2022/06/02 05:51:01;;;;;;;21.63;11.45;;;;;;;;;;4959605;28;20038;-73
2022/06/02 05:53:42;;;;;;;22.05;11.27;;;;;;;;;;4980058;28;20023;-73
2022/06/02 05:56:14;;;;;;;17.75;10.88;;;;;;;;;;4976731;28;20029;-72
2022/06/02 05:58:43;;;;;;;18.70;10.85;;;;;;;;;;4976945;28;20023;-75
2022/06/02 06:01:12;;;;;;;18.05;10.60;;;;;;;;;;4977040;28;20102;-72
2022/06/02 06:03:57;;;;;;;19.10;10.55;;;;;;;;;;4977143;28;20023;-72
2022/06/02 06:06:42;;;;;;;19.65;10.27;;;;;;;;;;4977235;28;20031;-74
2022/06/02 06:09:12;;;;;;;26.63;15.30;;;;;;;;;;4977521;28;20047;-73
2022/06/02 06:11:58;;;;;;;18.40;10.38;;;;;;;;;;4959860;28;20574;-73
2022/06/02 06:14:26;;;;;;;14.82;10.10;;;;;;;;;;4976626;28;20035;-73
2022/06/02 06:17:09;;;;;;;14.43;9.05;;;;;;;;;;4976473;28;20058;-73
2022/06/02 06:19:54;;;;;;;15.30;8.68;;;;;;;;;;4977439;28;20034;-73
2022/06/02 06:22:20;;;;;;;;;;;;;;;;;;4960391;28;20037;-73
2022/06/02 06:24:50;;;;;;;15.90;8.65;;;;;;;;;;4976912;28;20005;-73
2022/06/02 06:27:34;;;;;;;12.30;7.97;;;;;;;;;;4977590;28;20106;-72
2022/06/02 06:30:06;;;;;;;12.60;7.93;;;;;;;;;;4977224;28;20050;-76
2022/06/02 06:33:00;;;;;;;13.05;7.00;;;;;;;;;;4960317;28;20031;-71
2022/06/02 06:35:28;;;;;;;12.02;6.28;;;;;;;;;;4977396;28;20058;-73
2022/06/02 06:38:11;;;;;;;14.98;6.53;;;;;;;;;;4977958;28;20106;-73
2022/06/02 06:40:37;;;;;;;17.30;8.20;;;;;;;;;;4976100;28;20129;-72
2022/06/02 06:43:16;;;;;;;12.80;5.75;;;;;;;;;;4977478;28;20102;-72
2022/06/02 06:45:44;;;;;;;12.52;6.03;;;;;;;;;;4979574;28;20027;-72
2022/06/02 06:48:14;;;;;;;8.30;5.05;;;;;;;;;;4980368;28;20384;-73
2022/06/02 06:50:46;;;;;;;12.30;6.38;;;;;;;;;;4976698;28;20137;-72
2022/06/02 06:53:31;;;;;;;12.52;7.38;;;;;;;;;;4976681;28;20027;-71
2022/06/02 06:56:04;;;;;;;15.48;4.90;;;;;;;;;;4976580;28;20030;-70
2022/06/02 06:58:36;;;;;;;11.05;5.28;;;;;;;;;;4959082;28;20433;-70
2022/06/02 07:01:09;;;;;;;10.15;5.28;;;;;;;;;;4976292;28;20074;-70
2022/06/02 07:03:35;;;;;;;17.85;5.97;;;;;;;;;;4961548;28;20027;-74
2022/06/02 07:06:20;;;;;;;10.30;5.38;;;;;;;;;;4978434;28;20019;-74
2022/06/02 07:08:50;;;;;;;9.07;5.45;;;;;;;;;;4976128;28;20026;-75
2022/06/02 07:14:45;;;;;;;16.70;6.18;;;;;;;;;;4976269;28;20041;-71
2022/06/02 07:17:16;;;;;;;13.85;6.15;;;;;;;;;;4957787;28;20117;-74
2022/06/02 07:19:42;;;;;;;12.65;6.20;;;;;;;;;;4975103;28;20066;-71
2022/06/02 07:22:28;;;;;;;10.48;5.38;;;;;;;;;;4974973;28;20054;-70
2022/06/02 07:25:14;;;;;;;11.45;6.22;;;;;;;;;;4958999;28;20019;-72
2022/06/02 07:27:43;;;;;;;14.65;7.07;;;;;;;;;;4973746;28;20481;-71
2022/06/02 07:30:18;;;;;;;12.20;6.75;;;;;;;;;;4974283;28;20069;-72
2022/06/02 07:32:44;;;;;;;15.00;6.68;;;;;;;;;;4974641;28;20019;-72
2022/06/02 07:35:36;;;;;;;14.07;6.18;;;;;;;;;;4958964;28;20031;-71
2022/06/02 07:38:12;;;;;;;14.40;6.30;;;;;;;;;;4957122;28;20568;-72
2022/06/02 07:40:43;;;;;;;14.95;6.72;;;;;;;;;;4974269;28;20098;-71
2022/06/02 07:43:21;;;;;;;11.80;6.20;;;;;;;;;;4974284;28;20046;-70
2022/06/02 07:45:47;;;;;;;12.93;6.50;;;;;;;;;;4973080;28;20433;-71
2022/06/02 07:48:25;;;;;;;20.00;7.65;;;;;;;;;;4973830;28;20034;-71
2022/06/02 07:50:56;;;;;;;14.57;6.25;;;;;;;;;;4974067;28;20081;-72
2022/06/02 07:53:33;;;;;;;14.65;7.47;;;;;;;;;;4957132;28;20035;-72
2022/06/02 07:56:14;;;;;;;14.55;6.43;;;;;;;;;;4973583;28;20027;-71
2022/06/02 07:58:49;;;;;;;22.95;8.75;;;;;;;;;;4975653;28;20106;-72
2022/06/02 08:01:17;;;;;;;15.73;6.90;;;;;;;;;;4974022;28;20101;-71
2022/06/02 08:03:50;;;;;;;19.85;7.55;;;;;;;;;;4974420;28;20114;-71
2022/06/02 08:06:16;;;;;;;9.48;6.20;;;;;;;;;;4956248;28;20077;-70
2022/06/02 08:08:52;;;;;;;12.55;6.57;;;;;;;;;;4973597;28;20543;-71
2022/06/02 08:11:27;;;;;;;16.50;6.90;;;;;;;;;;4973738;28;20026;-72
2022/06/02 08:14:07;;;;;;;14.82;6.75;;;;;;;;;;4974355;28;20031;-72
2022/06/02 08:16:33;;;;;;;14.55;5.88;;;;;;;;;;4973529;28;20038;-72
2022/06/02 08:19:06;;;;;;;12.52;6.68;;;;;;;;;;4974332;28;20106;-70
2022/06/02 08:21:46;;;;;;;14.50;5.68;;;;;;;;;;4974360;28;20054;-70
2022/06/02 08:24:24;;;;;;;12.55;6.18;;;;;;;;;;4974232;28;20490;-72
2022/06/02 08:26:50;;;;;;;15.40;6.03;;;;;;;;;;4955788;28;20026;-72
2022/06/02 08:29:32;;;;;;;18.45;5.95;;;;;;;;;;4973934;28;20027;-70
2022/06/02 08:32:17;;;;;;;12.50;6.47;;;;;;;;;;4973471;28;20034;-70
2022/06/02 08:34:45;;;;;;;12.63;4.82;;;;;;;;;;4982226;28;20031;-71
2022/06/02 08:37:41;;;;;;;12.77;5.38;;;;;;;;;;4986896;28;20027;-71
2022/06/02 08:42:35;;;;;;;51.25;25.85;;;;;;;;;;5013456;23;20061;-75
2022/06/02 08:45:18;;;;;;;16.27;4.40;;;;;;;;;;4994855;28;20086;-76
2022/06/02 08:47:44;;;;;;;18.83;7.78;;;;;;;;;;4981271;28;20250;-75
2022/06/02 08:50:10;;;;;;;20.92;4.97;;;;;;;;;;5007694;28;20082;-76
2022/06/02 08:52:39;;;;;;;16.30;3.70;;;;;;;;;;4995104;28;20105;-76
2022/06/02 08:55:33;;;;;;;10.05;4.13;;;;;;;;;;4994669;28;20030;-74
2022/06/02 08:58:23;;;;;;;13.57;3.80;;;;;;;;;;4995493;28;20061;-76
2022/06/02 09:01:01;;;;;;;14.18;3.30;;;;;;;;;;4975905;28;20033;-74
2022/06/02 09:03:41;;;;;;;11.20;3.92;;;;;;;;;;4993421;28;20035;-75
2022/06/02 09:06:20;;;;;;;12.27;3.58;;;;;;;;;;4992449;28;20101;-74
2022/06/02 09:08:57;;;;;;;13.40;3.55;;;;;;;;;;4993580;28;20065;-75
2022/06/02 09:11:31;;;;;;;13.27;2.90;;;;;;;;;;5000750;28;20053;-74
2022/06/02 09:14:08;;;;;;;19.15;3.05;;;;;;;;;;5000239;28;20034;-76
2022/06/02 09:16:42;;;;;;;12.45;3.17;;;;;;;;;;4993263;28;20030;-74
2022/06/02 09:19:07;;;;;;;9.10;2.80;;;;;;;;;;4994011;28;20488;-74
2022/06/02 09:21:42;;;;;;;15.27;3.13;;;;;;;;;;4979970;28;20109;-76
2022/06/02 09:24:27;;;;;;;10.18;3.00;;;;;;;;;;4997394;28;20026;-74
2022/06/02 09:27:29;;;;;;;12.93;3.20;;;;;;;;;;4980230;28;20499;-74
2022/06/02 09:29:59;;;;;;;18.85;3.78;;;;;;;;;;4999466;28;20495;-74
2022/06/02 09:32:37;;;;;;;19.85;8.25;;;;;;;;;;4999025;28;20022;-75
2022/06/02 09:35:09;;;;;;;10.07;3.67;;;;;;;;;;4982525;28;20030;-76
2022/06/02 09:38:07;;;;;;;9.27;2.90;;;;;;;;;;4983508;28;20086;-75
2022/06/02 09:40:45;;;;;;;8.90;2.80;;;;;;;;;;4944610;28;20414;-74
2022/06/02 09:43:30;;;;;;;17.63;3.25;;;;;;;;;;4997521;28;20463;-74
2022/06/02 09:46:05;;;;;;;26.67;12.38;;;;;;;;;;4998810;28;20033;-75
2022/06/02 09:48:43;;;;;;;11.63;3.00;;;;;;;;;;4996636;28;20494;-74
2022/06/02 09:51:29;;;;;;;15.25;4.50;;;;;;;;;;4995855;28;20069;-74
2022/06/02 09:54:02;;;;;;;16.88;3.60;;;;;;;;;;4997779;28;20057;-74
2022/06/02 09:56:47;;;;;;;10.05;2.83;;;;;;;;;;4983746;28;20022;-75
2022/06/02 09:59:33;;;;;;;16.48;3.13;;;;;;;;;;5011328;28;20030;-73
2022/06/02 10:02:12;;;;;;;17.42;3.47;;;;;;;;;;4979813;28;20081;-75
2022/06/02 10:04:38;;;;;;;12.23;3.22;;;;;;;;;;4999446;28;20480;-76
2022/06/02 10:07:16;;;;;;;13.63;3.50;;;;;;;;;;4999883;28;20030;-74
2022/06/02 10:10:03;;;;;;;18.02;4.43;;;;;;;;;;4999374;28;20034;-74
2022/06/02 10:12:58;;;;;;;11.98;3.50;;;;;;;;;;4998424;28;20113;-73
2022/06/02 10:15:30;;;;;;;10.85;3.38;;;;;;;;;;4995487;28;20026;-75
2022/06/02 10:17:56;;;;;;;12.68;3.67;;;;;;;;;;4977920;28;20030;-73
2022/06/02 10:20:27;;;;;;;6.50;2.67;;;;;;;;;;4986588;28;20027;-74
2022/06/02 10:23:16;;;;;;;12.63;2.72;;;;;;;;;;4999761;28;20045;-74
2022/06/02 10:25:58;;;;;;;9.13;2.72;;;;;;;;;;4996559;28;20098;-74
2022/06/02 10:28:43;;;;;;;10.32;2.47;;;;;;;;;;4997124;28;20491;-75
2022/06/02 10:31:28;;;;;;;12.93;3.22;;;;;;;;;;4978282;28;20050;-75
2022/06/02 10:34:04;;;;;;;12.02;3.60;;;;;;;;;;4996944;28;20026;-73
2022/06/02 10:36:48;;;;;;;10.80;2.85;;;;;;;;;;4996072;28;20018;-76
2022/06/02 10:39:37;;;;;;;11.95;2.72;;;;;;;;;;4997798;28;20360;-73
2022/06/02 10:42:06;;;;;;;12.38;2.90;;;;;;;;;;4951663;28;20046;-76
2022/06/02 10:44:53;;;;;;;12.65;2.80;;;;;;;;;;4996844;28;20058;-73
2022/06/02 10:47:38;;;;;;;14.82;3.08;;;;;;;;;;4978077;28;20018;-74
2022/06/02 10:50:22;;;;;;;14.73;3.45;;;;;;;;;;4996102;28;20426;-76
2022/06/02 10:53:07;;;;;;;18.33;3.05;;;;;;;;;;4997354;28;20050;-73
2022/06/02 10:55:52;;;;;;;20.95;7.35;;;;;;;;;;4995906;28;20041;-74
2022/06/02 10:58:18;;;;;;;;;;;;;;;;;;4996102;28;20027;-74
2022/06/02 11:01:03;;;;;;;15.27;2.70;;;;;;;;;;4995743;28;19913;-76
2022/06/02 11:03:32;;;;;;;16.52;2.63;;;;;;;;;;4995548;28;20113;-75
2022/06/02 11:06:08;;;;;;;9.90;2.38;;;;;;;;;;5004849;28;20537;-74
2022/06/02 11:08:34;;;;;;;12.27;2.33;;;;;;;;;;4995238;28;20181;-74
2022/06/02 11:11:18;;;;;;;9.38;2.33;;;;;;;;;;4995149;28;20053;-75
2022/06/02 11:13:58;;;;;;;12.90;2.75;;;;;;;;;;4996190;28;20037;-75
2022/06/02 11:16:48;;;;;;;12.35;2.83;;;;;;;;;;5002978;28;20022;-74
2022/06/02 11:19:34;;;;;;;14.52;4.28;;;;;;;;;;4995400;28;20046;-75
2022/06/02 11:22:19;;;;;;;16.88;3.67;;;;;;;;;;4995667;28;20030;-76
2022/06/02 11:25:01;;;;;;;12.18;2.28;;;;;;;;;;4997601;28;20026;-75
2022/06/02 11:27:44;;;;;;;11.13;4.68;;;;;;;;;;5001340;28;20096;-73
2022/06/02 11:30:22;;;;;;;8.02;1.90;;;;;;;;;;4998791;28;20026;-76
2022/06/02 11:32:57;;;;;;;7.97;1.83;;;;;;;;;;4977451;28;20022;-74
2022/06/02 11:35:33;;;;;;;10.98;2.22;;;;;;;;;;4994508;28;20030;-75
2022/06/02 11:38:20;;;;;;;8.98;2.42;;;;;;;;;;4994165;28;20614;-75
2022/06/02 11:40:58;;;;;;;13.15;3.67;;;;;;;;;;4993805;28;20041;-75
2022/06/02 11:43:33;;;;;;;8.25;2.03;;;;;;;;;;4993108;28;20030;-74
2022/06/02 11:46:08;;;;;;;7.97;2.30;;;;;;;;;;4993661;28;20113;-73
2022/06/02 11:49:02;;;;;;;12.18;2.53;;;;;;;;;;4993789;28;20027;-74
2022/06/02 11:51:37;;;;;;;9.32;2.00;;;;;;;;;;4993822;28;20164;-76
2022/06/02 11:54:22;;;;;;;13.70;2.67;;;;;;;;;;4994144;28;20115;-73
2022/06/02 11:56:50;;;;;;;15.10;3.22;;;;;;;;;;4995022;28;20022;-75
2022/06/02 11:59:19;;;;;;;10.88;3.30;;;;;;;;;;4994353;28;20377;-74
2022/06/02 12:01:59;;;;;;;16.17;2.33;;;;;;;;;;4994662;28;20072;-76
2022/06/02 12:04:31;;;;;;;6.95;2.00;;;;;;;;;;4994295;28;20053;-74
2022/06/02 12:07:12;;;;;;;12.65;2.85;;;;;;;;;;4995119;28;20369;-74
2022/06/02 12:09:57;;;;;;;12.13;2.78;;;;;;;;;;4996664;28;20498;-75
2022/06/02 12:12:29;;;;;;;9.68;2.60;;;;;;;;;;4997232;28;20041;-74
2022/06/02 12:15:12;;;;;;;19.42;2.75;;;;;;;;;;4978044;28;20092;-76
2022/06/02 12:18:01;;;;;;;7.53;2.22;;;;;;;;;;4994452;28;20396;-76
2022/06/02 12:20:27;;;;;;;8.77;2.40;;;;;;;;;;4996062;28;20026;-76
2022/06/02 12:22:53;;;;;;;8.40;2.17;;;;;;;;;;4994655;28;20372;-76
2022/06/02 12:25:19;;;;;;;10.60;2.72;;;;;;;;;;4993790;28;20026;-76
2022/06/02 12:28:09;;;;;;;12.60;3.22;;;;;;;;;;4997521;28;20026;-76
2022/06/02 12:30:35;;;;;;;11.60;2.85;;;;;;;;;;4998172;28;20044;-77
2022/06/02 12:33:01;;;;;;;18.65;2.78;;;;;;;;;;4978145;28;20030;-77
2022/06/02 12:35:42;;;;;;;11.10;2.17;;;;;;;;;;4994668;28;20034;-74
2022/06/02 12:38:15;;;;;;;20.25;2.42;;;;;;;;;;4995652;28;20407;-76
2022/06/02 12:40:48;;;;;;;14.23;2.28;;;;;;;;;;4993415;28;20423;-74
2022/06/02 12:43:27;;;;;;;20.23;2.35;;;;;;;;;;4993832;28;20022;-75
2022/06/02 12:46:05;;;;;;;9.25;1.98;;;;;;;;;;4995075;28;20034;-76
2022/06/02 12:48:34;;;;;;;21.20;7.07;;;;;;;;;;4994479;28;20018;-76
2022/06/02 12:51:20;;;;;;;10.00;2.50;;;;;;;;;;4995785;28;20081;-76
2022/06/02 12:53:57;;;;;;;11.02;2.40;;;;;;;;;;4995824;28;20096;-76
2022/06/02 12:56:32;;;;;;;7.90;2.47;;;;;;;;;;4999398;28;20027;-74
2022/06/02 12:58:58;;;;;;;12.32;1.98;;;;;;;;;;4980891;28;20483;-75
2022/06/02 13:01:42;;;;;;;12.07;2.22;;;;;;;;;;5000316;28;20030;-75
2022/06/02 13:04:23;;;;;;;11.85;3.25;;;;;;;;;;5005944;28;20022;-76
2022/06/02 13:07:08;;;;;;;14.82;2.65;;;;;;;;;;5002982;28;20033;-76
2022/06/02 13:09:52;;;;;;;13.15;2.40;;;;;;;;;;5001418;28;20078;-76
2022/06/02 13:12:31;;;;;;;8.02;1.73;;;;;;;;;;4998740;28;20027;-77
2022/06/02 13:15:20;;;;;;;11.38;2.17;;;;;;;;;;4999150;28;20053;-76
2022/06/02 13:17:57;;;;;;;11.65;1.90;;;;;;;;;;5001549;28;20030;-76
2022/06/02 13:20:23;;;;;;;10.35;2.50;;;;;;;;;;5002067;28;20145;-76
2022/06/02 13:23:07;;;;;;;13.57;1.90;;;;;;;;;;5001104;28;20030;-77
2022/06/02 13:25:54;;;;;;;12.82;4.50;;;;;;;;;;4999943;28;20601;-77
2022/06/02 13:28:33;;;;;;;11.60;5.00;;;;;;;;;;5002777;28;20027;-77
2022/06/02 13:31:18;;;;;;;11.95;3.10;;;;;;;;;;4998928;28;20081;-75
2022/06/02 13:33:59;;;;;;;11.85;2.20;;;;;;;;;;4998836;28;20030;-76
2022/06/02 13:36:44;;;;;;;13.20;2.83;;;;;;;;;;4997442;28;20490;-76
2022/06/02 13:39:13;;;;;;;11.93;2.60;;;;;;;;;;4982238;28;20121;-76
2022/06/02 13:41:55;;;;;;;7.75;2.25;;;;;;;;;;5000915;28;20096;-76
2022/06/02 13:44:21;;;;;;;13.30;2.13;;;;;;;;;;5007075;28;20037;-75
2022/06/02 13:47:06;;;;;;;9.27;2.00;;;;;;;;;;5007927;28;20022;-75
2022/06/02 13:49:31;;;;;;;;;;;;;;;;;;5000080;28;20070;-75
2022/06/02 13:52:18;;;;;;;11.90;2.03;;;;;;;;;;5000419;28;19905;-76
2022/06/02 13:57:53;;;;;;;8.10;2.40;;;;;;;;;;4962527;28;20037;-75
2022/06/02 14:00:25;;;;;;;18.60;2.80;;;;;;;;;;4998705;28;20257;-76
2022/06/02 14:03:10;;;;;;;10.05;2.38;;;;;;;;;;5007139;28;20150;-76
2022/06/02 14:05:36;;;;;;;;;;;;;;;;;;4989786;28;20081;-74
2022/06/02 14:08:15;;;;;;;10.60;2.58;;;;;;;;;;5003312;28;19909;-76
2022/06/02 14:11:00;;;;;;;8.90;2.38;;;;;;;;;;5000644;28;20026;-76
2022/06/02 14:13:33;;;;;;;10.23;2.30;;;;;;;;;;4981735;28;20157;-78
2022/06/02 14:16:19;;;;;;;12.07;2.35;;;;;;;;;;4998039;28;20034;-77
2022/06/02 14:18:58;;;;;;;14.63;2.30;;;;;;;;;;4999799;28;20022;-76
2022/06/02 14:21:36;;;;;;;11.52;2.53;;;;;;;;;;4977442;28;20058;-77
2022/06/02 14:24:11;;;;;;;8.23;2.60;;;;;;;;;;4979741;28;20498;-75
2022/06/02 14:26:37;;;;;;;11.85;2.40;;;;;;;;;;4979385;28;20026;-75
2022/06/02 14:29:03;;;;;;;9.80;1.65;;;;;;;;;;4979925;28;20030;-77
2022/06/02 14:31:49;;;;;;;10.73;2.30;;;;;;;;;;4978022;28;20107;-77
2022/06/02 14:34:15;;;;;;;6.78;1.85;;;;;;;;;;4980812;28;20027;-77
2022/06/02 14:36:50;;;;;;;11.32;2.38;;;;;;;;;;4978593;28;20034;-77
2022/06/02 14:39:19;;;;;;;9.82;2.20;;;;;;;;;;4978881;28;20074;-75
2022/06/02 14:42:13;;;;;;;10.90;2.35;;;;;;;;;;4991969;23;20117;-74
2022/06/02 14:44:42;;;;;;;11.65;2.03;;;;;;;;;;4959906;28;20042;-74
2022/06/02 14:47:13;;;;;;;7.22;1.70;;;;;;;;;;4976358;28;20027;-76
2022/06/02 14:49:39;;;;;;;8.45;2.15;;;;;;;;;;4986365;28;20023;-74
2022/06/02 14:52:18;;;;;;;7.18;1.80;;;;;;;;;;4997628;28;20035;-74
2022/06/02 14:54:59;;;;;;;10.23;2.10;;;;;;;;;;4997989;28;20106;-74
2022/06/02 14:57:40;;;;;;;11.60;2.15;;;;;;;;;;4996532;28;20031;-74
2022/06/02 15:00:13;;;;;;;9.60;2.28;;;;;;;;;;4995912;28;20035;-75
2022/06/02 15:02:48;;;;;;;10.88;2.38;;;;;;;;;;4968022;28;20502;-75
2022/06/02 15:05:20;;;;;;;8.23;2.33;;;;;;;;;;4975661;28;20027;-73
2022/06/02 15:07:50;;;;;;;12.32;2.05;;;;;;;;;;4976183;28;20027;-76
2022/06/02 15:10:16;;;;;;;10.57;2.45;;;;;;;;;;4976090;28;20031;-74
2022/06/02 15:13:02;;;;;;;12.52;2.42;;;;;;;;;;4974673;28;20034;-74
2022/06/02 15:15:43;;;;;;;12.05;2.47;;;;;;;;;;4974781;28;20030;-75
2022/06/02 15:18:19;;;;;;;14.35;2.50;;;;;;;;;;4975886;28;20133;-75
2022/06/02 15:20:58;;;;;;;14.32;4.88;;;;;;;;;;4975320;28;20023;-74
2022/06/02 15:23:42;;;;;;;12.60;3.15;;;;;;;;;;4975363;28;20038;-75
2022/06/02 15:26:27;;;;;;;11.18;3.53;;;;;;;;;;4974536;28;20517;-74
2022/06/02 15:29:12;;;;;;;6.72;1.83;;;;;;;;;;4975981;28;20527;-75
2022/06/02 15:31:52;;;;;;;11.98;2.58;;;;;;;;;;4975164;28;20038;-75
2022/06/02 15:34:37;;;;;;;13.30;2.35;;;;;;;;;;4975286;28;20027;-76
2022/06/02 15:37:15;;;;;;;9.68;2.83;;;;;;;;;;4973918;28;20388;-74
2022/06/02 15:39:41;;;;;;;14.10;4.45;;;;;;;;;;4974826;28;20031;-74